sensor_id;sensor_type;location;lat;lon;timestamp;temperature;humidity
75994;DHT22;64680;53.800;9.988;2023-08-01T00:00:38;15.30;99.90
75994;DHT22;64680;53.800;9.988;2023-08-01T00:03:04;15.20;99.90
75994;DHT22;64680;53.800;9.988;2023-08-01T00:05:29;15.20;99.90
75994;DHT22;64680;53.800;9.988;2023-08-01T00:07:55;15.20;99.90
75994;DHT22;64680;53.800;9.988;2023-08-01T00:10:21;15.20;99.90
75994;DHT22;64680;53.800;9.988;2023-08-01T00:12:46;15.20;99.90
75994;DHT22;64680;53.800;9.988;2023-08-01T00:15:12;15.20;99.90
75994;DHT22;64680;53.800;9.988;2023-08-01T00:17:38;15.20;99.90
75994;DHT22;64680;53.800;9.988;2023-08-01T00:20:04;15.20;99.90
75994;DHT22;64680;53.800;9.988;2023-08-01T00:22:30;15.10;99.90
75994;DHT22;64680;53.800;9.988;2023-08-01T00:24:55;15.10;99.90
75994;DHT22;64680;53.800;9.988;2023-08-01T00:27:21;15.10;99.90
75994;DHT22;64680;53.800;9.988;2023-08-01T00:29:47;15.10;99.90
75994;DHT22;64680;53.800;9.988;2023-08-01T00:32:13;15.10;99.90
75994;DHT22;64680;53.800;9.988;2023-08-01T00:34:38;15.10;99.90
75994;DHT22;64680;53.800;9.988;2023-08-01T00:37:05;15.20;99.90
75994;DHT22;64680;53.800;9.988;2023-08-01T00:39:30;15.20;99.90
75994;DHT22;64680;53.800;9.988;2023-08-01T00:41:56;15.20;99.90
75994;DHT22;64680;53.800;9.988;2023-08-01T00:44:22;15.10;99.90
75994;DHT22;64680;53.800;9.988;2023-08-01T00:46:49;15.10;99.90
75994;DHT22;64680;53.800;9.988;2023-08-01T00:49:15;15.10;99.90
75994;DHT22;64680;53.800;9.988;2023-08-01T00:51:42;15.10;99.90
75994;DHT22;64680;53.800;9.988;2023-08-01T00:54:08;15.10;99.90
75994;DHT22;64680;53.800;9.988;2023-08-01T00:56:34;15.10;99.90
75994;DHT22;64680;53.800;9.988;2023-08-01T00:59:00;15.10;99.90
75994;DHT22;64680;53.800;9.988;2023-08-01T01:01:26;15.00;99.90
75994;DHT22;64680;53.800;9.988;2023-08-01T01:03:52;15.00;99.90
75994;DHT22;64680;53.800;9.988;2023-08-01T01:06:24;15.00;99.90
75994;DHT22;64680;53.800;9.988;2023-08-01T01:08:50;14.90;99.90
75994;DHT22;64680;53.800;9.988;2023-08-01T01:11:15;15.00;99.90
75994;DHT22;64680;53.800;9.988;2023-08-01T01:13:41;14.90;99.90
75994;DHT22;64680;53.800;9.988;2023-08-01T01:16:07;14.90;99.90
75994;DHT22;64680;53.800;9.988;2023-08-01T01:18:32;14.80;99.90
75994;DHT22;64680;53.800;9.988;2023-08-01T01:20:58;14.80;99.90
75994;DHT22;64680;53.800;9.988;2023-08-01T01:23:24;14.80;99.90
75994;DHT22;64680;53.800;9.988;2023-08-01T01:25:51;14.80;99.90
75994;DHT22;64680;53.800;9.988;2023-08-01T01:28:18;14.80;99.90
75994;DHT22;64680;53.800;9.988;2023-08-01T01:30:45;14.80;99.90
75994;DHT22;64680;53.800;9.988;2023-08-01T01:33:11;14.80;99.90
75994;DHT22;64680;53.800;9.988;2023-08-01T01:35:37;14.70;99.90
75994;DHT22;64680;53.800;9.988;2023-08-01T01:38:04;14.70;99.90
75994;DHT22;64680;53.800;9.988;2023-08-01T01:40:31;14.70;99.90
75994;DHT22;64680;53.800;9.988;2023-08-01T01:42:57;14.70;99.90
75994;DHT22;64680;53.800;9.988;2023-08-01T01:45:22;14.70;99.90
75994;DHT22;64680;53.800;9.988;2023-08-01T01:47:48;14.70;99.90
75994;DHT22;64680;53.800;9.988;2023-08-01T01:50:14;14.70;99.90
75994;DHT22;64680;53.800;9.988;2023-08-01T01:52:39;14.70;99.90
75994;DHT22;64680;53.800;9.988;2023-08-01T01:55:05;14.70;99.90
75994;DHT22;64680;53.800;9.988;2023-08-01T01:57:30;14.70;99.90
75994;DHT22;64680;53.800;9.988;2023-08-01T01:59:56;14.70;99.90
75994;DHT22;64680;53.800;9.988;2023-08-01T02:02:22;14.60;99.90
75994;DHT22;64680;53.800;9.988;2023-08-01T02:04:49;14.70;99.90
75994;DHT22;64680;53.800;9.988;2023-08-01T02:07:15;14.60;99.90
75994;DHT22;64680;53.800;9.988;2023-08-01T02:09:40;14.60;99.90
75994;DHT22;64680;53.800;9.988;2023-08-01T02:12:07;14.60;99.90
75994;DHT22;64680;53.800;9.988;2023-08-01T02:14:35;14.60;99.90
75994;DHT22;64680;53.800;9.988;2023-08-01T02:38:00;14.80;99.90
75994;DHT22;64680;53.800;9.988;2023-08-01T02:40:25;14.80;99.90
75994;DHT22;64680;53.800;9.988;2023-08-01T02:42:52;14.80;99.90
75994;DHT22;64680;53.800;9.988;2023-08-01T02:45:17;14.80;99.90
75994;DHT22;64680;53.800;9.988;2023-08-01T02:47:43;14.90;99.90
75994;DHT22;64680;53.800;9.988;2023-08-01T02:50:09;14.90;99.90
75994;DHT22;64680;53.800;9.988;2023-08-01T02:52:34;14.90;99.90
75994;DHT22;64680;53.800;9.988;2023-08-01T02:55:00;14.90;99.90
75994;DHT22;64680;53.800;9.988;2023-08-01T02:57:26;14.90;99.90
75994;DHT22;64680;53.800;9.988;2023-08-01T02:59:51;14.90;99.90
75994;DHT22;64680;53.800;9.988;2023-08-01T03:02:17;15.00;99.90
75994;DHT22;64680;53.800;9.988;2023-08-01T03:04:42;15.00;99.90
75994;DHT22;64680;53.800;9.988;2023-08-01T03:07:08;15.00;99.90
75994;DHT22;64680;53.800;9.988;2023-08-01T03:09:34;15.10;99.90
75994;DHT22;64680;53.800;9.988;2023-08-01T03:11:59;15.10;99.90
75994;DHT22;64680;53.800;9.988;2023-08-01T03:14:25;15.10;99.90
75994;DHT22;64680;53.800;9.988;2023-08-01T03:16:50;15.10;99.90
75994;DHT22;64680;53.800;9.988;2023-08-01T03:19:16;15.20;99.90
75994;DHT22;64680;53.800;9.988;2023-08-01T03:21:42;15.20;99.90
75994;DHT22;64680;53.800;9.988;2023-08-01T03:24:08;15.20;99.90
75994;DHT22;64680;53.800;9.988;2023-08-01T03:26:35;15.20;99.90
75994;DHT22;64680;53.800;9.988;2023-08-01T03:29:00;15.20;99.90
75994;DHT22;64680;53.800;9.988;2023-08-01T03:31:26;15.20;99.90
75994;DHT22;64680;53.800;9.988;2023-08-01T03:33:52;15.30;99.90
75994;DHT22;64680;53.800;9.988;2023-08-01T03:36:18;15.20;99.90
75994;DHT22;64680;53.800;9.988;2023-08-01T03:38:43;15.20;99.90
75994;DHT22;64680;53.800;9.988;2023-08-01T03:41:09;15.30;99.90
75994;DHT22;64680;53.800;9.988;2023-08-01T03:43:35;15.30;99.90
75994;DHT22;64680;53.800;9.988;2023-08-01T03:46:00;15.30;99.90
75994;DHT22;64680;53.800;9.988;2023-08-01T03:48:26;15.40;99.90
75994;DHT22;64680;53.800;9.988;2023-08-01T03:50:52;15.30;99.90
75994;DHT22;64680;53.800;9.988;2023-08-01T03:53:17;15.30;99.90
75994;DHT22;64680;53.800;9.988;2023-08-01T03:55:44;15.30;99.90
75994;DHT22;64680;53.800;9.988;2023-08-01T03:58:10;15.30;99.90
75994;DHT22;64680;53.800;9.988;2023-08-01T04:00:35;15.30;99.90
75994;DHT22;64680;53.800;9.988;2023-08-01T04:03:01;15.30;99.90
75994;DHT22;64680;53.800;9.988;2023-08-01T04:05:28;15.30;99.90
75994;DHT22;64680;53.800;9.988;2023-08-01T04:07:54;15.30;99.90
75994;DHT22;64680;53.800;9.988;2023-08-01T04:10:23;15.30;99.90
75994;DHT22;64680;53.800;9.988;2023-08-01T04:12:49;15.30;99.90
75994;DHT22;64680;53.800;9.988;2023-08-01T04:15:15;15.30;99.90
75994;DHT22;64680;53.800;9.988;2023-08-01T04:17:40;15.30;99.90
75994;DHT22;64680;53.800;9.988;2023-08-01T04:20:06;15.40;99.90
75994;DHT22;64680;53.800;9.988;2023-08-01T04:22:32;15.30;99.90
75994;DHT22;64680;53.800;9.988;2023-08-01T04:24:58;15.40;99.90
75994;DHT22;64680;53.800;9.988;2023-08-01T04:27:23;15.40;99.90
75994;DHT22;64680;53.800;9.988;2023-08-01T04:29:49;15.40;99.90
75994;DHT22;64680;53.800;9.988;2023-08-01T04:32:15;15.30;99.90
75994;DHT22;64680;53.800;9.988;2023-08-01T04:34:41;15.40;99.90
75994;DHT22;64680;53.800;9.988;2023-08-01T04:37:07;15.40;99.90
75994;DHT22;64680;53.800;9.988;2023-08-01T04:39:33;15.40;99.90
75994;DHT22;64680;53.800;9.988;2023-08-01T04:41:59;15.40;99.90
75994;DHT22;64680;53.800;9.988;2023-08-01T04:44:24;15.40;99.90
75994;DHT22;64680;53.800;9.988;2023-08-01T04:46:50;15.40;99.90
75994;DHT22;64680;53.800;9.988;2023-08-01T04:49:16;15.40;99.90
75994;DHT22;64680;53.800;9.988;2023-08-01T04:51:41;15.40;99.90
75994;DHT22;64680;53.800;9.988;2023-08-01T04:54:07;15.40;99.90
75994;DHT22;64680;53.800;9.988;2023-08-01T04:56:32;15.40;99.90
75994;DHT22;64680;53.800;9.988;2023-08-01T04:58:58;15.40;99.90
75994;DHT22;64680;53.800;9.988;2023-08-01T05:01:23;15.40;99.90
75994;DHT22;64680;53.800;9.988;2023-08-01T05:03:49;15.40;99.90
75994;DHT22;64680;53.800;9.988;2023-08-01T05:06:15;15.50;99.90
75994;DHT22;64680;53.800;9.988;2023-08-01T05:08:40;15.40;99.90
75994;DHT22;64680;53.800;9.988;2023-08-01T05:11:06;15.50;99.90
75994;DHT22;64680;53.800;9.988;2023-08-01T05:13:31;15.50;99.90
75994;DHT22;64680;53.800;9.988;2023-08-01T05:15:57;15.50;99.90
75994;DHT22;64680;53.800;9.988;2023-08-01T05:18:23;15.40;99.90
75994;DHT22;64680;53.800;9.988;2023-08-01T05:20:48;15.50;99.90
75994;DHT22;64680;53.800;9.988;2023-08-01T05:23:14;15.50;99.90
75994;DHT22;64680;53.800;9.988;2023-08-01T05:25:40;15.50;99.90
75994;DHT22;64680;53.800;9.988;2023-08-01T05:28:05;15.50;99.90
75994;DHT22;64680;53.800;9.988;2023-08-01T05:30:31;15.50;99.90
75994;DHT22;64680;53.800;9.988;2023-08-01T05:32:56;15.50;99.90
75994;DHT22;64680;53.800;9.988;2023-08-01T05:35:22;15.50;99.90
75994;DHT22;64680;53.800;9.988;2023-08-01T05:37:48;15.40;99.90
75994;DHT22;64680;53.800;9.988;2023-08-01T05:40:13;15.40;99.90
75994;DHT22;64680;53.800;9.988;2023-08-01T05:42:39;15.40;99.90
75994;DHT22;64680;53.800;9.988;2023-08-01T05:45:05;15.40;99.90
75994;DHT22;64680;53.800;9.988;2023-08-01T05:47:31;15.50;99.90
75994;DHT22;64680;53.800;9.988;2023-08-01T05:49:56;15.50;99.90
75994;DHT22;64680;53.800;9.988;2023-08-01T05:52:22;15.50;99.90
75994;DHT22;64680;53.800;9.988;2023-08-01T05:54:48;15.50;99.90
75994;DHT22;64680;53.800;9.988;2023-08-01T05:57:14;15.50;99.90
75994;DHT22;64680;53.800;9.988;2023-08-01T05:59:39;15.50;99.90
75994;DHT22;64680;53.800;9.988;2023-08-01T06:02:05;15.50;99.90
75994;DHT22;64680;53.800;9.988;2023-08-01T06:04:31;15.50;99.90
75994;DHT22;64680;53.800;9.988;2023-08-01T06:06:57;15.50;99.90
75994;DHT22;64680;53.800;9.988;2023-08-01T06:09:23;15.50;99.90
75994;DHT22;64680;53.800;9.988;2023-08-01T06:11:48;15.60;99.90
75994;DHT22;64680;53.800;9.988;2023-08-01T06:14:14;15.60;99.90
75994;DHT22;64680;53.800;9.988;2023-08-01T06:16:40;15.70;99.90
75994;DHT22;64680;53.800;9.988;2023-08-01T06:19:06;15.70;99.90
75994;DHT22;64680;53.800;9.988;2023-08-01T06:21:32;15.80;99.90
75994;DHT22;64680;53.800;9.988;2023-08-01T06:23:57;15.90;99.90
75994;DHT22;64680;53.800;9.988;2023-08-01T06:26:23;15.90;99.90
75994;DHT22;64680;53.800;9.988;2023-08-01T06:28:49;16.00;99.90
75994;DHT22;64680;53.800;9.988;2023-08-01T06:31:14;16.20;99.90
75994;DHT22;64680;53.800;9.988;2023-08-01T06:33:40;16.10;99.90
75994;DHT22;64680;53.800;9.988;2023-08-01T06:36:06;16.20;99.90
75994;DHT22;64680;53.800;9.988;2023-08-01T06:38:31;16.20;99.90
75994;DHT22;64680;53.800;9.988;2023-08-01T06:40:57;16.20;99.90
75994;DHT22;64680;53.800;9.988;2023-08-01T06:43:23;16.20;99.90
75994;DHT22;64680;53.800;9.988;2023-08-01T06:45:50;16.20;99.90
75994;DHT22;64680;53.800;9.988;2023-08-01T06:48:16;16.30;99.90
75994;DHT22;64680;53.800;9.988;2023-08-01T06:50:41;16.30;99.90
75994;DHT22;64680;53.800;9.988;2023-08-01T06:53:07;16.20;99.90
75994;DHT22;64680;53.800;9.988;2023-08-01T06:55:34;16.30;99.90
75994;DHT22;64680;53.800;9.988;2023-08-01T06:57:59;16.20;99.90
75994;DHT22;64680;53.800;9.988;2023-08-01T07:00:25;16.20;99.90
75994;DHT22;64680;53.800;9.988;2023-08-01T07:02:50;16.20;99.90
75994;DHT22;64680;53.800;9.988;2023-08-01T07:05:16;16.20;99.90
75994;DHT22;64680;53.800;9.988;2023-08-01T07:07:42;16.10;99.90
75994;DHT22;64680;53.800;9.988;2023-08-01T07:10:08;16.20;99.90
75994;DHT22;64680;53.800;9.988;2023-08-01T07:12:33;16.20;99.90
75994;DHT22;64680;53.800;9.988;2023-08-01T07:14:59;16.40;99.90
75994;DHT22;64680;53.800;9.988;2023-08-01T07:17:25;16.50;99.90
75994;DHT22;64680;53.800;9.988;2023-08-01T07:19:50;16.60;99.90
75994;DHT22;64680;53.800;9.988;2023-08-01T07:22:16;16.60;99.90
75994;DHT22;64680;53.800;9.988;2023-08-01T07:24:41;16.50;98.30
75994;DHT22;64680;53.800;9.988;2023-08-01T07:27:07;16.40;99.90
75994;DHT22;64680;53.800;9.988;2023-08-01T07:29:32;16.50;98.80
75994;DHT22;64680;53.800;9.988;2023-08-01T07:31:58;16.50;94.90
75994;DHT22;64680;53.800;9.988;2023-08-01T07:34:24;16.40;96.30
75994;DHT22;64680;53.800;9.988;2023-08-01T07:36:50;16.40;99.60
75994;DHT22;64680;53.800;9.988;2023-08-01T07:39:16;16.30;97.10
75994;DHT22;64680;53.800;9.988;2023-08-01T07:41:42;16.30;95.80
75994;DHT22;64680;53.800;9.988;2023-08-01T07:44:07;16.30;99.00
75994;DHT22;64680;53.800;9.988;2023-08-01T07:46:33;16.20;99.70
75994;DHT22;64680;53.800;9.988;2023-08-01T07:48:59;16.40;99.50
75994;DHT22;64680;53.800;9.988;2023-08-01T07:51:27;16.50;99.30
75994;DHT22;64680;53.800;9.988;2023-08-01T07:53:53;16.60;98.70
75994;DHT22;64680;53.800;9.988;2023-08-01T07:56:19;16.70;99.70
75994;DHT22;64680;53.800;9.988;2023-08-01T07:58:45;16.80;94.20
75994;DHT22;64680;53.800;9.988;2023-08-01T08:01:11;16.80;89.60
75994;DHT22;64680;53.800;9.988;2023-08-01T08:03:37;16.80;85.60
75994;DHT22;64680;53.800;9.988;2023-08-01T08:06:02;16.70;87.00
75994;DHT22;64680;53.800;9.988;2023-08-01T08:08:29;16.70;86.10
75994;DHT22;64680;53.800;9.988;2023-08-01T08:10:55;16.80;89.70
75994;DHT22;64680;53.800;9.988;2023-08-01T08:13:21;17.00;86.20
75994;DHT22;64680;53.800;9.988;2023-08-01T08:15:47;17.00;86.80
75994;DHT22;64680;53.800;9.988;2023-08-01T08:18:12;17.00;84.00
75994;DHT22;64680;53.800;9.988;2023-08-01T08:20:43;16.90;85.10
75994;DHT22;64680;53.800;9.988;2023-08-01T08:23:10;16.70;80.60
75994;DHT22;64680;53.800;9.988;2023-08-01T08:25:36;16.60;80.80
75994;DHT22;64680;53.800;9.988;2023-08-01T08:28:02;16.60;85.00
75994;DHT22;64680;53.800;9.988;2023-08-01T08:30:28;17.00;91.40
75994;DHT22;64680;53.800;9.988;2023-08-01T08:32:54;17.60;83.30
75994;DHT22;64680;53.800;9.988;2023-08-01T08:35:19;17.90;67.90
75994;DHT22;64680;53.800;9.988;2023-08-01T08:37:45;18.00;63.90
75994;DHT22;64680;53.800;9.988;2023-08-01T08:40:12;17.90;68.10
75994;DHT22;64680;53.800;9.988;2023-08-01T08:42:38;17.80;65.00
75994;DHT22;64680;53.800;9.988;2023-08-01T08:45:06;17.70;69.30
75994;DHT22;64680;53.800;9.988;2023-08-01T08:47:36;17.70;66.30
75994;DHT22;64680;53.800;9.988;2023-08-01T08:50:02;17.70;71.80
75994;DHT22;64680;53.800;9.988;2023-08-01T08:52:27;17.80;64.10
75994;DHT22;64680;53.800;9.988;2023-08-01T08:54:53;18.00;65.30
75994;DHT22;64680;53.800;9.988;2023-08-01T08:57:20;18.20;63.60
75994;DHT22;64680;53.800;9.988;2023-08-01T08:59:47;18.20;64.10
75994;DHT22;64680;53.800;9.988;2023-08-01T09:02:14;18.20;59.90
75994;DHT22;64680;53.800;9.988;2023-08-01T09:04:40;18.30;56.40
75994;DHT22;64680;53.800;9.988;2023-08-01T09:07:09;18.20;57.20
75994;DHT22;64680;53.800;9.988;2023-08-01T09:09:36;17.70;56.30
75994;DHT22;64680;53.800;9.988;2023-08-01T09:12:02;16.80;65.20
75994;DHT22;64680;53.800;9.988;2023-08-01T09:14:28;16.40;78.10
75994;DHT22;64680;53.800;9.988;2023-08-01T09:16:54;16.10;93.20
75994;DHT22;64680;53.800;9.988;2023-08-01T09:19:23;16.00;99.20
75994;DHT22;64680;53.800;9.988;2023-08-01T09:21:49;15.80;99.90
75994;DHT22;64680;53.800;9.988;2023-08-01T09:24:19;15.80;99.90
75994;DHT22;64680;53.800;9.988;2023-08-01T09:26:47;15.80;99.90
75994;DHT22;64680;53.800;9.988;2023-08-01T09:29:13;15.90;99.90
75994;DHT22;64680;53.800;9.988;2023-08-01T09:31:41;15.90;99.90
75994;DHT22;64680;53.800;9.988;2023-08-01T09:34:25;15.90;99.90
75994;DHT22;64680;53.800;9.988;2023-08-01T09:36:58;15.90;99.90
75994;DHT22;64680;53.800;9.988;2023-08-01T09:39:23;15.90;99.90
75994;DHT22;64680;53.800;9.988;2023-08-01T09:42:00;15.90;99.90
75994;DHT22;64680;53.800;9.988;2023-08-01T09:44:27;16.10;99.90
75994;DHT22;64680;53.800;9.988;2023-08-01T09:47:00;16.20;99.90
75994;DHT22;64680;53.800;9.988;2023-08-01T09:49:27;16.50;99.90
75994;DHT22;64680;53.800;9.988;2023-08-01T09:51:53;16.80;99.90
75994;DHT22;64680;53.800;9.988;2023-08-01T09:54:21;17.10;99.90
75994;DHT22;64680;53.800;9.988;2023-08-01T09:56:48;17.50;99.90
75994;DHT22;64680;53.800;9.988;2023-08-01T09:59:19;17.90;99.90
75994;DHT22;64680;53.800;9.988;2023-08-01T10:01:48;18.20;99.90
75994;DHT22;64680;53.800;9.988;2023-08-01T10:04:23;18.40;93.90
75994;DHT22;64680;53.800;9.988;2023-08-01T10:06:50;18.60;93.20
75994;DHT22;64680;53.800;9.988;2023-08-01T10:09:18;18.60;84.40
75994;DHT22;64680;53.800;9.988;2023-08-01T10:11:44;18.60;86.60
75994;DHT22;64680;53.800;9.988;2023-08-01T10:14:10;18.60;80.60
75994;DHT22;64680;53.800;9.988;2023-08-01T10:16:36;18.80;96.90
75994;DHT22;64680;53.800;9.988;2023-08-01T10:19:02;18.80;84.10
75994;DHT22;64680;53.800;9.988;2023-08-01T10:21:31;18.60;81.80
75994;DHT22;64680;53.800;9.988;2023-08-01T10:23:58;18.70;94.40
75994;DHT22;64680;53.800;9.988;2023-08-01T10:26:24;19.00;97.60
75994;DHT22;64680;53.800;9.988;2023-08-01T10:28:51;19.20;58.40
75994;DHT22;64680;53.800;9.988;2023-08-01T10:31:18;19.10;65.00
75994;DHT22;64680;53.800;9.988;2023-08-01T10:33:49;19.10;62.20
75994;DHT22;64680;53.800;9.988;2023-08-01T10:38:49;18.50;63.30
75994;DHT22;64680;53.800;9.988;2023-08-01T10:41:25;18.70;65.20
75994;DHT22;64680;53.800;9.988;2023-08-01T10:43:51;18.90;63.60
75994;DHT22;64680;53.800;9.988;2023-08-01T10:46:16;19.00;51.30
75994;DHT22;64680;53.800;9.988;2023-08-01T10:48:50;19.10;42.50
75994;DHT22;64680;53.800;9.988;2023-08-01T10:51:15;18.90;37.90
75994;DHT22;64680;53.800;9.988;2023-08-01T10:53:41;18.30;40.20
75994;DHT22;64680;53.800;9.988;2023-08-01T10:56:07;17.60;52.60
75994;DHT22;64680;53.800;9.988;2023-08-01T10:58:34;17.10;61.60
75994;DHT22;64680;53.800;9.988;2023-08-01T11:01:00;16.60;73.80
75994;DHT22;64680;53.800;9.988;2023-08-01T11:03:39;16.40;74.70
75994;DHT22;64680;53.800;9.988;2023-08-01T11:06:05;16.00;81.40
75994;DHT22;64680;53.800;9.988;2023-08-01T11:08:38;15.80;90.00
75994;DHT22;64680;53.800;9.988;2023-08-01T11:11:11;15.80;92.00
75994;DHT22;64680;53.800;9.988;2023-08-01T11:13:38;15.90;95.70
75994;DHT22;64680;53.800;9.988;2023-08-01T11:16:04;16.10;96.40
75994;DHT22;64680;53.800;9.988;2023-08-01T11:18:41;16.30;94.10
75994;DHT22;64680;53.800;9.988;2023-08-01T11:21:07;16.40;91.20
75994;DHT22;64680;53.800;9.988;2023-08-01T11:23:33;16.50;91.10
75994;DHT22;64680;53.800;9.988;2023-08-01T11:25:58;16.40;79.00
75994;DHT22;64680;53.800;9.988;2023-08-01T11:28:24;16.40;80.70
75994;DHT22;64680;53.800;9.988;2023-08-01T11:30:50;16.20;86.00
75994;DHT22;64680;53.800;9.988;2023-08-01T11:33:20;16.00;91.50
75994;DHT22;64680;53.800;9.988;2023-08-01T11:35:56;15.90;92.70
75994;DHT22;64680;53.800;9.988;2023-08-01T11:38:29;15.80;93.40
75994;DHT22;64680;53.800;9.988;2023-08-01T11:40:56;15.60;96.50
75994;DHT22;64680;53.800;9.988;2023-08-01T11:43:22;15.50;95.60
75994;DHT22;64680;53.800;9.988;2023-08-01T11:45:49;15.30;97.40
75994;DHT22;64680;53.800;9.988;2023-08-01T11:48:15;15.20;99.90
75994;DHT22;64680;53.800;9.988;2023-08-01T11:50:43;15.00;99.90
75994;DHT22;64680;53.800;9.988;2023-08-01T11:53:18;14.90;99.90
75994;DHT22;64680;53.800;9.988;2023-08-01T11:55:44;15.00;99.90
75994;DHT22;64680;53.800;9.988;2023-08-01T11:58:10;15.20;99.90
75994;DHT22;64680;53.800;9.988;2023-08-01T12:00:36;15.60;99.90
75994;DHT22;64680;53.800;9.988;2023-08-01T12:03:09;16.00;99.90
75994;DHT22;64680;53.800;9.988;2023-08-01T12:05:42;16.30;99.90
75994;DHT22;64680;53.800;9.988;2023-08-01T12:08:12;16.30;99.90
75994;DHT22;64680;53.800;9.988;2023-08-01T12:10:45;16.40;98.10
75994;DHT22;64680;53.800;9.988;2023-08-01T12:13:24;16.50;98.90
75994;DHT22;64680;53.800;9.988;2023-08-01T12:15:51;16.80;99.90
75994;DHT22;64680;53.800;9.988;2023-08-01T12:18:24;17.20;99.90
75994;DHT22;64680;53.800;9.988;2023-08-01T12:20:51;17.50;99.90
75994;DHT22;64680;53.800;9.988;2023-08-01T12:23:17;17.80;92.30
75994;DHT22;64680;53.800;9.988;2023-08-01T12:25:42;17.80;87.50
75994;DHT22;64680;53.800;9.988;2023-08-01T12:28:08;17.80;89.90
75994;DHT22;64680;53.800;9.988;2023-08-01T12:30:34;17.70;81.30
75994;DHT22;64680;53.800;9.988;2023-08-01T12:32:59;17.70;85.70
75994;DHT22;64680;53.800;9.988;2023-08-01T12:35:26;17.80;91.30
75994;DHT22;64680;53.800;9.988;2023-08-01T12:37:53;18.00;90.30
75994;DHT22;64680;53.800;9.988;2023-08-01T12:40:19;18.30;90.20
75994;DHT22;64680;53.800;9.988;2023-08-01T12:42:45;18.40;73.10
75994;DHT22;64680;53.800;9.988;2023-08-01T12:45:11;18.30;80.80
75994;DHT22;64680;53.800;9.988;2023-08-01T12:47:36;18.00;79.00
75994;DHT22;64680;53.800;9.988;2023-08-01T12:50:02;17.80;73.70
75994;DHT22;64680;53.800;9.988;2023-08-01T12:52:28;17.60;83.70
75994;DHT22;64680;53.800;9.988;2023-08-01T12:54:54;17.40;81.70
75994;DHT22;64680;53.800;9.988;2023-08-01T12:57:19;17.30;82.10
75994;DHT22;64680;53.800;9.988;2023-08-01T12:59:45;17.20;87.20
75994;DHT22;64680;53.800;9.988;2023-08-01T13:02:11;17.00;90.20
75994;DHT22;64680;53.800;9.988;2023-08-01T13:04:37;16.90;89.00
75994;DHT22;64680;53.800;9.988;2023-08-01T13:07:02;16.90;88.70
75994;DHT22;64680;53.800;9.988;2023-08-01T13:09:28;16.90;85.40
75994;DHT22;64680;53.800;9.988;2023-08-01T13:11:53;16.80;81.90
75994;DHT22;64680;53.800;9.988;2023-08-01T13:14:19;16.70;82.50
75994;DHT22;64680;53.800;9.988;2023-08-01T13:16:45;16.60;81.60
75994;DHT22;64680;53.800;9.988;2023-08-01T13:19:10;16.50;86.20
75994;DHT22;64680;53.800;9.988;2023-08-01T13:21:36;16.50;89.70
75994;DHT22;64680;53.800;9.988;2023-08-01T13:24:02;16.50;88.40
75994;DHT22;64680;53.800;9.988;2023-08-01T13:26:31;16.40;91.50
75994;DHT22;64680;53.800;9.988;2023-08-01T13:28:57;16.40;90.20
75994;DHT22;64680;53.800;9.988;2023-08-01T13:31:23;16.50;87.80
75994;DHT22;64680;53.800;9.988;2023-08-01T13:33:49;16.50;90.30
75994;DHT22;64680;53.800;9.988;2023-08-01T13:36:14;16.50;92.30
75994;DHT22;64680;53.800;9.988;2023-08-01T13:38:40;16.60;98.00
75994;DHT22;64680;53.800;9.988;2023-08-01T13:41:06;16.80;94.60
75994;DHT22;64680;53.800;9.988;2023-08-01T13:43:31;17.20;99.70
75994;DHT22;64680;53.800;9.988;2023-08-01T13:45:57;17.50;90.50
75994;DHT22;64680;53.800;9.988;2023-08-01T13:48:22;17.70;89.30
75994;DHT22;64680;53.800;9.988;2023-08-01T13:50:48;17.90;85.20
75994;DHT22;64680;53.800;9.988;2023-08-01T13:53:13;18.00;74.80
75994;DHT22;64680;53.800;9.988;2023-08-01T13:55:42;17.90;78.00
75994;DHT22;64680;53.800;9.988;2023-08-01T13:58:08;17.70;80.30
75994;DHT22;64680;53.800;9.988;2023-08-01T14:00:33;17.70;80.50
75994;DHT22;64680;53.800;9.988;2023-08-01T14:02:59;17.80;83.50
75994;DHT22;64680;53.800;9.988;2023-08-01T14:05:25;17.80;75.90
75994;DHT22;64680;53.800;9.988;2023-08-01T14:07:52;17.60;72.80
75994;DHT22;64680;53.800;9.988;2023-08-01T14:10:18;17.30;73.70
75994;DHT22;64680;53.800;9.988;2023-08-01T14:12:44;17.10;74.60
75994;DHT22;64680;53.800;9.988;2023-08-01T14:15:09;16.90;84.80
75994;DHT22;64680;53.800;9.988;2023-08-01T14:17:35;16.80;85.10
75994;DHT22;64680;53.800;9.988;2023-08-01T14:20:01;16.70;89.00
75994;DHT22;64680;53.800;9.988;2023-08-01T14:22:29;16.70;91.90
75994;DHT22;64680;53.800;9.988;2023-08-01T14:24:55;16.70;98.20
75994;DHT22;64680;53.800;9.988;2023-08-01T14:27:21;16.60;96.80
75994;DHT22;64680;53.800;9.988;2023-08-01T14:29:47;16.80;99.60
75994;DHT22;64680;53.800;9.988;2023-08-01T14:32:15;17.10;98.40
75994;DHT22;64680;53.800;9.988;2023-08-01T14:34:41;17.50;94.20
75994;DHT22;64680;53.800;9.988;2023-08-01T14:37:07;17.70;90.90
75994;DHT22;64680;53.800;9.988;2023-08-01T14:39:32;18.00;86.20
75994;DHT22;64680;53.800;9.988;2023-08-01T14:41:58;18.20;77.80
75994;DHT22;64680;53.800;9.988;2023-08-01T14:44:23;18.40;75.50
75994;DHT22;64680;53.800;9.988;2023-08-01T14:46:49;18.50;74.20
75994;DHT22;64680;53.800;9.988;2023-08-01T14:49:15;18.60;70.50
75994;DHT22;64680;53.800;9.988;2023-08-01T14:51:42;18.70;80.20
75994;DHT22;64680;53.800;9.988;2023-08-01T14:54:08;18.60;71.60
75994;DHT22;64680;53.800;9.988;2023-08-01T14:56:34;18.40;69.10
75994;DHT22;64680;53.800;9.988;2023-08-01T14:58:59;18.10;73.20
75994;DHT22;64680;53.800;9.988;2023-08-01T15:01:25;18.00;79.20
75994;DHT22;64680;53.800;9.988;2023-08-01T15:03:51;18.00;89.50
75994;DHT22;64680;53.800;9.988;2023-08-01T15:06:16;18.20;85.90
75994;DHT22;64680;53.800;9.988;2023-08-01T15:08:42;18.30;78.90
75994;DHT22;64680;53.800;9.988;2023-08-01T15:11:08;18.40;75.90
75994;DHT22;64680;53.800;9.988;2023-08-01T15:13:34;18.50;70.60
75994;DHT22;64680;53.800;9.988;2023-08-01T15:16:01;18.50;70.90
75994;DHT22;64680;53.800;9.988;2023-08-01T15:18:27;18.60;74.20
75994;DHT22;64680;53.800;9.988;2023-08-01T15:20:53;18.40;66.60
75994;DHT22;64680;53.800;9.988;2023-08-01T15:23:19;18.30;72.90
75994;DHT22;64680;53.800;9.988;2023-08-01T15:26:03;18.30;68.80
75994;DHT22;64680;53.800;9.988;2023-08-01T15:28:29;18.20;74.20
75994;DHT22;64680;53.800;9.988;2023-08-01T15:31:08;18.00;72.60
75994;DHT22;64680;53.800;9.988;2023-08-01T15:33:38;17.80;79.70
75994;DHT22;64680;53.800;9.988;2023-08-01T15:36:05;17.40;70.10
75994;DHT22;64680;53.800;9.988;2023-08-01T15:38:31;17.10;76.70
75994;DHT22;64680;53.800;9.988;2023-08-01T15:40:58;16.80;79.90
75994;DHT22;64680;53.800;9.988;2023-08-01T15:43:25;16.60;80.90
75994;DHT22;64680;53.800;9.988;2023-08-01T15:45:52;16.50;84.50
75994;DHT22;64680;53.800;9.988;2023-08-01T15:48:17;16.40;87.90